sensor_id;sensor_type;location;lat;lon;timestamp;pressure;altitude;pressure_sealevel;temperature;humidity
35121;BME280;21297;52.008;4.576;2024-01-25T00:00:28;44867.66;;;-143.47;72.13
35121;BME280;21297;52.008;4.576;2024-01-25T00:03:14;44863.75;;;-143.47;72.55
35121;BME280;21297;52.008;4.576;2024-01-25T00:05:59;44881.41;;;-143.47;73.25
35121;BME280;21297;52.008;4.576;2024-01-25T00:08:45;44895.16;;;-143.47;73.68
35121;BME280;21297;52.008;4.576;2024-01-25T00:11:31;44908.91;;;-143.47;73.80
35121;BME280;21297;52.008;4.576;2024-01-25T00:14:17;44861.78;;;-143.47;73.04
35121;BME280;21297;52.008;4.576;2024-01-25T00:17:03;44873.56;;;-143.47;73.19
35121;BME280;21297;52.008;4.576;2024-01-25T00:19:48;44916.78;;;-143.47;73.12
35121;BME280;21297;52.008;4.576;2024-01-25T00:22:34;44861.78;;;-143.47;73.79
35121;BME280;21297;52.008;4.576;2024-01-25T00:25:20;44865.69;;;-143.47;73.33
35121;BME280;21297;52.008;4.576;2024-01-25T00:28:06;44875.53;;;-143.47;73.39
35121;BME280;21297;52.008;4.576;2024-01-25T00:30:51;44877.50;;;-143.47;73.59
35121;BME280;21297;52.008;4.576;2024-01-25T00:33:37;44905.00;;;-143.47;73.39
35121;BME280;21297;52.008;4.576;2024-01-25T00:36:24;44916.78;;;-143.47;73.28
35121;BME280;21297;52.008;4.576;2024-01-25T00:39:10;44891.25;;;-143.47;73.56
35121;BME280;21297;52.008;4.576;2024-01-25T00:42:04;44897.13;;;-143.47;74.06
35121;BME280;21297;52.008;4.576;2024-01-25T00:44:50;44912.84;;;-143.47;73.79
35121;BME280;21297;52.008;4.576;2024-01-25T00:47:37;44879.47;;;-143.47;73.86
35121;BME280;21297;52.008;4.576;2024-01-25T00:50:23;44912.84;;;-143.47;74.09
35121;BME280;21297;52.008;4.576;2024-01-25T00:53:11;44897.13;;;-143.47;74.03
35121;BME280;21297;52.008;4.576;2024-01-25T00:55:57;44905.00;;;-143.47;73.56
35121;BME280;21297;52.008;4.576;2024-01-25T00:58:43;44889.28;;;-143.47;73.90
35121;BME280;21297;52.008;4.576;2024-01-25T01:01:29;44922.66;;;-143.47;74.47
35121;BME280;21297;52.008;4.576;2024-01-25T01:04:15;44869.63;;;-143.47;73.44
35121;BME280;21297;52.008;4.576;2024-01-25T01:07:01;44891.25;;;-143.47;74.10
35121;BME280;21297;52.008;4.576;2024-01-25T01:09:46;44899.09;;;-143.47;73.98
35121;BME280;21297;52.008;4.576;2024-01-25T01:12:32;44873.56;;;-143.47;73.44
35121;BME280;21297;52.008;4.576;2024-01-25T01:15:18;44920.72;;;-143.47;73.58
35121;BME280;21297;52.008;4.576;2024-01-25T01:18:04;44901.06;;;-143.47;73.61
35121;BME280;21297;52.008;4.576;2024-01-25T01:20:50;44905.00;;;-143.47;73.97
35121;BME280;21297;52.008;4.576;2024-01-25T01:23:36;44893.22;;;-143.47;73.93
35121;BME280;21297;52.008;4.576;2024-01-25T01:26:21;44871.59;;;-143.47;73.49
35121;BME280;21297;52.008;4.576;2024-01-25T01:29:07;44930.53;;;-143.47;74.26
35121;BME280;21297;52.008;4.576;2024-01-25T01:31:53;44903.03;;;-143.47;73.91
35121;BME280;21297;52.008;4.576;2024-01-25T01:34:39;44885.34;;;-143.47;74.40
35121;BME280;21297;52.008;4.576;2024-01-25T01:37:25;44920.72;;;-143.47;74.31
35121;BME280;21297;52.008;4.576;2024-01-25T01:40:10;44940.34;;;-143.47;74.45
35121;BME280;21297;52.008;4.576;2024-01-25T01:43:00;44926.59;;;-143.47;74.50
35121;BME280;21297;52.008;4.576;2024-01-25T01:45:46;44934.47;;;-143.47;75.74
35121;BME280;21297;52.008;4.576;2024-01-25T01:48:32;44918.75;;;-143.47;75.53
35121;BME280;21297;52.008;4.576;2024-01-25T01:51:18;44948.22;;;-143.47;77.13
35121;BME280;21297;52.008;4.576;2024-01-25T01:54:06;44946.25;;;-143.47;76.11
35121;BME280;21297;52.008;4.576;2024-01-25T01:56:53;44989.47;;;-143.47;77.58
35121;BME280;21297;52.008;4.576;2024-01-25T01:59:39;44932.50;;;-143.47;76.78
35121;BME280;21297;52.008;4.576;2024-01-25T02:02:25;44928.56;;;-143.47;76.41
35121;BME280;21297;52.008;4.576;2024-01-25T02:05:11;44983.56;;;-143.47;77.97
35121;BME280;21297;52.008;4.576;2024-01-25T02:07:56;44969.81;;;-143.47;77.59
35121;BME280;21297;52.008;4.576;2024-01-25T02:10:42;44983.56;;;-143.47;78.01
35121;BME280;21297;52.008;4.576;2024-01-25T02:13:28;44967.84;;;-143.47;78.46
35121;BME280;21297;52.008;4.576;2024-01-25T02:16:14;44985.53;;;-143.47;78.20
35121;BME280;21297;52.008;4.576;2024-01-25T02:19:00;45018.94;;;-143.47;79.28
35121;BME280;21297;52.008;4.576;2024-01-25T02:21:46;45005.19;;;-143.47;79.35
35121;BME280;21297;52.008;4.576;2024-01-25T02:24:31;44997.31;;;-143.47;78.61
35121;BME280;21297;52.008;4.576;2024-01-25T02:27:17;45018.94;;;-143.47;79.33
35121;BME280;21297;52.008;4.576;2024-01-25T02:30:03;45026.78;;;-143.47;80.31
35121;BME280;21297;52.008;4.576;2024-01-25T02:32:49;45016.97;;;-143.47;80.84
35121;BME280;21297;52.008;4.576;2024-01-25T02:35:34;44946.25;;;-143.47;78.99
35121;BME280;21297;52.008;4.576;2024-01-25T02:38:20;44912.84;;;-143.47;76.22
35121;BME280;21297;52.008;4.576;2024-01-25T02:41:06;44920.72;;;-143.47;76.64
35121;BME280;21297;52.008;4.576;2024-01-25T02:43:51;44938.38;;;-143.47;75.80
35121;BME280;21297;52.008;4.576;2024-01-25T02:46:37;44869.63;;;-143.47;73.87
35121;BME280;21297;52.008;4.576;2024-01-25T02:49:23;44871.59;;;-143.47;72.27
35121;BME280;21297;52.008;4.576;2024-01-25T02:52:10;44869.63;;;-143.47;72.37
35121;BME280;21297;52.008;4.576;2024-01-25T02:54:55;44891.25;;;-143.47;73.32
35121;BME280;21297;52.008;4.576;2024-01-25T02:57:41;44869.63;;;-143.47;73.42
35121;BME280;21297;52.008;4.576;2024-01-25T03:00:26;44920.72;;;-143.47;75.86
35121;BME280;21297;52.008;4.576;2024-01-25T03:03:12;44950.16;;;-143.47;76.98
35121;BME280;21297;52.008;4.576;2024-01-25T03:05:59;44934.47;;;-143.47;76.25
35121;BME280;21297;52.008;4.576;2024-01-25T03:08:45;44895.16;;;-143.47;73.27
35121;BME280;21297;52.008;4.576;2024-01-25T03:11:31;44889.28;;;-143.47;72.92
35121;BME280;21297;52.008;4.576;2024-01-25T03:14:17;44983.56;;;-143.47;77.78
35121;BME280;21297;52.008;4.576;2024-01-25T03:17:03;44963.94;;;-143.47;77.66
35121;BME280;21297;52.008;4.576;2024-01-25T03:19:48;44905.00;;;-143.47;74.66
35121;BME280;21297;52.008;4.576;2024-01-25T03:22:35;44859.81;;;-143.47;72.78
35121;BME280;21297;52.008;4.576;2024-01-25T03:25:20;44885.34;;;-143.47;71.99
35121;BME280;21297;52.008;4.576;2024-01-25T03:28:06;44863.75;;;-143.47;72.12
35121;BME280;21297;52.008;4.576;2024-01-25T03:30:52;44865.69;;;-143.47;72.72
35121;BME280;21297;52.008;4.576;2024-01-25T03:33:37;44914.81;;;-143.47;73.61
35121;BME280;21297;52.008;4.576;2024-01-25T03:36:23;44908.91;;;-143.47;74.73
35121;BME280;21297;52.008;4.576;2024-01-25T03:39:09;44942.31;;;-143.47;75.13
35121;BME280;21297;52.008;4.576;2024-01-25T03:41:54;44922.66;;;-143.47;75.82
35121;BME280;21297;52.008;4.576;2024-01-25T03:44:40;44948.22;;;-143.47;76.20
35121;BME280;21297;52.008;4.576;2024-01-25T03:47:27;44918.75;;;-143.47;76.35
35121;BME280;21297;52.008;4.576;2024-01-25T03:50:13;44887.31;;;-143.47;75.66
35121;BME280;21297;52.008;4.576;2024-01-25T03:52:59;44912.84;;;-143.47;75.26
35121;BME280;21297;52.008;4.576;2024-01-25T03:55:44;44979.63;;;-143.47;75.18
35121;BME280;21297;52.008;4.576;2024-01-25T03:58:30;44934.47;;;-143.47;74.77
35121;BME280;21297;52.008;4.576;2024-01-25T04:01:16;44901.06;;;-143.47;73.56
35121;BME280;21297;52.008;4.576;2024-01-25T04:04:01;44916.78;;;-143.47;73.35
35121;BME280;21297;52.008;4.576;2024-01-25T04:06:47;44928.56;;;-143.47;74.16
35121;BME280;21297;52.008;4.576;2024-01-25T04:09:33;44967.84;;;-143.47;77.12
35121;BME280;21297;52.008;4.576;2024-01-25T04:12:19;44952.13;;;-143.47;76.40
35121;BME280;21297;52.008;4.576;2024-01-25T04:15:05;44944.28;;;-143.47;75.65
35121;BME280;21297;52.008;4.576;2024-01-25T04:17:51;44916.78;;;-143.47;75.48
35121;BME280;21297;52.008;4.576;2024-01-25T04:20:39;44912.84;;;-143.47;74.90
35121;BME280;21297;52.008;4.576;2024-01-25T04:23:25;44906.97;;;-143.47;75.04
35121;BME280;21297;52.008;4.576;2024-01-25T04:26:11;44928.56;;;-143.47;74.95
35121;BME280;21297;52.008;4.576;2024-01-25T04:28:56;44952.13;;;-143.47;75.22
35121;BME280;21297;52.008;4.576;2024-01-25T04:31:45;44942.31;;;-143.47;76.28
35121;BME280;21297;52.008;4.576;2024-01-25T04:34:31;44999.28;;;-143.47;77.67
35121;BME280;21297;52.008;4.576;2024-01-25T04:37:17;44993.38;;;-143.47;78.28
35121;BME280;21297;52.008;4.576;2024-01-25T04:40:03;44989.47;;;-143.47;78.49
35121;BME280;21297;52.008;4.576;2024-01-25T04:42:50;44954.09;;;-143.47;77.61
35121;BME280;21297;52.008;4.576;2024-01-25T04:45:36;44979.63;;;-143.47;77.95
35121;BME280;21297;52.008;4.576;2024-01-25T04:48:21;45003.22;;;-143.47;78.83
35121;BME280;21297;52.008;4.576;2024-01-25T04:51:07;44979.63;;;-143.47;78.84
35121;BME280;21297;52.008;4.576;2024-01-25T04:53:53;45034.66;;;-143.47;79.60
35121;BME280;21297;52.008;4.576;2024-01-25T04:56:38;45034.66;;;-143.47;80.44
35121;BME280;21297;52.008;4.576;2024-01-25T04:59:24;45024.81;;;-143.47;80.82
35121;BME280;21297;52.008;4.576;2024-01-25T05:02:10;45052.31;;;-143.47;80.66
35121;BME280;21297;52.008;4.576;2024-01-25T05:04:55;45030.72;;;-143.47;80.70
35121;BME280;21297;52.008;4.576;2024-01-25T05:07:41;45093.59;;;-143.47;81.53
35121;BME280;21297;52.008;4.576;2024-01-25T05:10:27;45040.53;;;-143.47;80.92
35121;BME280;21297;52.008;4.576;2024-01-25T05:13:13;45026.78;;;-143.47;79.13
35121;BME280;21297;52.008;4.576;2024-01-25T05:15:58;44991.44;;;-143.47;78.95
35121;BME280;21297;52.008;4.576;2024-01-25T05:18:44;44993.38;;;-143.47;78.35
35121;BME280;21297;52.008;4.576;2024-01-25T05:21:30;44975.72;;;-143.47;78.41
35121;BME280;21297;52.008;4.576;2024-01-25T05:24:15;44995.34;;;-143.47;79.44
35121;BME280;21297;52.008;4.576;2024-01-25T05:27:02;45016.97;;;-143.47;79.87
35121;BME280;21297;52.008;4.576;2024-01-25T05:29:47;45026.78;;;-143.47;79.99
35121;BME280;21297;52.008;4.576;2024-01-25T05:32:33;45030.72;;;-143.47;79.83
35121;BME280;21297;52.008;4.576;2024-01-25T05:35:18;45015.00;;;-143.47;79.77
35121;BME280;21297;52.008;4.576;2024-01-25T05:38:04;45030.72;;;-143.47;80.72
35121;BME280;21297;52.008;4.576;2024-01-25T05:40:50;45030.72;;;-143.47;80.09
35121;BME280;21297;52.008;4.576;2024-01-25T05:43:36;45040.53;;;-143.47;80.44
35121;BME280;21297;52.008;4.576;2024-01-25T05:46:22;45081.78;;;-143.47;81.88
35121;BME280;21297;52.008;4.576;2024-01-25T05:49:08;45164.31;;;-143.47;84.33
35121;BME280;21297;52.008;4.576;2024-01-25T05:51:53;45117.16;;;-143.47;82.90
35121;BME280;21297;52.008;4.576;2024-01-25T05:54:39;45183.94;;;-143.47;84.75
35121;BME280;21297;52.008;4.576;2024-01-25T05:57:25;45207.53;;;-143.47;85.95
35121;BME280;21297;52.008;4.576;2024-01-25T06:00:12;45144.66;;;-143.47;85.22
35121;BME280;21297;52.008;4.576;2024-01-25T06:02:58;45164.31;;;-143.47;85.10
35121;BME280;21297;52.008;4.576;2024-01-25T06:05:44;45191.81;;;-143.47;85.37
35121;BME280;21297;52.008;4.576;2024-01-25T06:08:29;45191.81;;;-143.47;85.54
35121;BME280;21297;52.008;4.576;2024-01-25T06:11:15;45158.41;;;-143.47;84.22
35121;BME280;21297;52.008;4.576;2024-01-25T06:14:01;45125.00;;;-143.47;83.64
35121;BME280;21297;52.008;4.576;2024-01-25T06:16:46;45148.59;;;-143.47;83.84
35121;BME280;21297;52.008;4.576;2024-01-25T06:19:32;45152.50;;;-143.47;83.15
35121;BME280;21297;52.008;4.576;2024-01-25T06:22:19;45095.53;;;-143.47;82.94
35121;BME280;21297;52.008;4.576;2024-01-25T06:25:05;45081.78;;;-143.47;82.31
35121;BME280;21297;52.008;4.576;2024-01-25T06:27:51;45097.50;;;-143.47;82.71
35121;BME280;21297;52.008;4.576;2024-01-25T06:30:36;45101.44;;;-143.47;83.21
35121;BME280;21297;52.008;4.576;2024-01-25T06:33:22;45195.72;;;-143.47;85.88
35121;BME280;21297;52.008;4.576;2024-01-25T06:36:08;45280.22;;;-143.47;86.32
35121;BME280;21297;52.008;4.576;2024-01-25T06:38:54;45152.50;;;-143.47;84.91
35121;BME280;21297;52.008;4.576;2024-01-25T06:41:39;45095.53;;;-143.47;83.95
35121;BME280;21297;52.008;4.576;2024-01-25T06:44:25;45156.44;;;-143.47;84.36
35121;BME280;21297;52.008;4.576;2024-01-25T06:47:11;45117.16;;;-143.47;83.97
35121;BME280;21297;52.008;4.576;2024-01-25T06:49:56;45083.75;;;-143.47;83.17
35121;BME280;21297;52.008;4.576;2024-01-25T06:52:42;45231.09;;;-143.47;86.32
35121;BME280;21297;52.008;4.576;2024-01-25T06:55:28;45390.22;;;-143.47;89.36
35121;BME280;21297;52.008;4.576;2024-01-25T06:58:13;45400.06;;;-143.47;89.83
35121;BME280;21297;52.008;4.576;2024-01-25T07:00:59;45254.66;;;-143.47;87.36
35121;BME280;21297;52.008;4.576;2024-01-25T07:03:45;45119.13;;;-143.47;83.43
35121;BME280;21297;52.008;4.576;2024-01-25T07:06:31;45052.31;;;-143.47;81.83
35121;BME280;21297;52.008;4.576;2024-01-25T07:09:16;45125.00;;;-143.47;82.56
35121;BME280;21297;52.008;4.576;2024-01-25T07:12:02;45180.03;;;-143.47;85.39
35121;BME280;21297;52.008;4.576;2024-01-25T07:14:48;45321.47;;;-143.47;88.32
35121;BME280;21297;52.008;4.576;2024-01-25T07:17:34;45350.94;;;-143.47;89.05
35121;BME280;21297;52.008;4.576;2024-01-25T07:20:19;45366.66;;;-143.47;88.88
35121;BME280;21297;52.008;4.576;2024-01-25T07:23:05;45193.78;;;-143.47;85.72
35121;BME280;21297;52.008;4.576;2024-01-25T07:25:51;45105.38;;;-143.47;83.74
35121;BME280;21297;52.008;4.576;2024-01-25T07:28:36;45058.22;;;-143.47;82.25
35121;BME280;21297;52.008;4.576;2024-01-25T07:31:22;45085.72;;;-143.47;82.20
35121;BME280;21297;52.008;4.576;2024-01-25T07:34:08;45136.81;;;-143.47;84.68
35121;BME280;21297;52.008;4.576;2024-01-25T07:36:53;45209.50;;;-143.47;85.98
35121;BME280;21297;52.008;4.576;2024-01-25T07:39:39;45368.63;;;-143.47;88.87
35121;BME280;21297;52.008;4.576;2024-01-25T07:42:26;45380.41;;;-143.47;89.35
35121;BME280;21297;52.008;4.576;2024-01-25T07:45:11;45219.31;;;-143.47;86.68
35121;BME280;21297;52.008;4.576;2024-01-25T07:47:59;45022.84;;;-143.47;80.72
35121;BME280;21297;52.008;4.576;2024-01-25T07:50:44;44979.63;;;-143.47;78.47
35121;BME280;21297;52.008;4.576;2024-01-25T07:53:30;44960.00;;;-143.47;78.04
35121;BME280;21297;52.008;4.576;2024-01-25T07:56:16;44999.28;;;-143.47;78.17
35121;BME280;21297;52.008;4.576;2024-01-25T07:59:01;45013.03;;;-143.47;80.04
35121;BME280;21297;52.008;4.576;2024-01-25T08:01:47;45081.78;;;-143.47;82.22
35121;BME280;21297;52.008;4.576;2024-01-25T08:04:33;45103.41;;;-143.47;82.29
35121;BME280;21297;52.008;4.576;2024-01-25T08:07:19;45089.66;;;-143.47;83.11
35121;BME280;21297;52.008;4.576;2024-01-25T08:10:05;45058.22;;;-143.47;82.25
35121;BME280;21297;52.008;4.576;2024-01-25T08:12:51;45015.00;;;-143.47;80.37
35121;BME280;21297;52.008;4.576;2024-01-25T08:15:37;45038.56;;;-143.47;80.34
35121;BME280;21297;52.008;4.576;2024-01-25T08:18:23;44973.75;;;-143.47;78.99
35121;BME280;21297;52.008;4.576;2024-01-25T08:21:10;44995.34;;;-143.47;79.17
35121;BME280;21297;52.008;4.576;2024-01-25T08:23:56;45009.09;;;-143.47;79.13
35121;BME280;21297;52.008;4.576;2024-01-25T08:26:42;44997.31;;;-143.47;79.76
35121;BME280;21297;52.008;4.576;2024-01-25T08:29:27;45026.78;;;-143.47;79.97
35121;BME280;21297;52.008;4.576;2024-01-25T08:32:13;45003.22;;;-143.47;79.59
35121;BME280;21297;52.008;4.576;2024-01-25T08:34:59;45018.94;;;-143.47;80.32
35121;BME280;21297;52.008;4.576;2024-01-25T08:37:44;45068.03;;;-143.47;81.74
35121;BME280;21297;52.008;4.576;2024-01-25T08:40:30;45087.69;;;-143.47;82.43
35121;BME280;21297;52.008;4.576;2024-01-25T08:43:16;45099.47;;;-143.47;83.19
35121;BME280;21297;52.008;4.576;2024-01-25T08:46:01;45123.03;;;-143.47;83.01
35121;BME280;21297;52.008;4.576;2024-01-25T08:48:47;45125.00;;;-143.47;83.86
35121;BME280;21297;52.008;4.576;2024-01-25T08:51:33;45156.44;;;-143.47;84.57
35121;BME280;21297;52.008;4.576;2024-01-25T08:54:18;45168.22;;;-143.47;84.50
35121;BME280;21297;52.008;4.576;2024-01-25T08:57:04;45180.03;;;-143.47;84.40
35121;BME280;21297;52.008;4.576;2024-01-25T08:59:50;45170.19;;;-143.47;85.19
35121;BME280;21297;52.008;4.576;2024-01-25T09:02:37;45150.56;;;-143.47;85.10
35121;BME280;21297;52.008;4.576;2024-01-25T09:05:23;45168.22;;;-143.47;84.52
35121;BME280;21297;52.008;4.576;2024-01-25T09:08:14;45150.56;;;-143.47;84.17
35121;BME280;21297;52.008;4.576;2024-01-25T09:11:00;45144.66;;;-143.47;84.01
35121;BME280;21297;52.008;4.576;2024-01-25T09:13:45;45105.38;;;-143.47;83.13
35121;BME280;21297;52.008;4.576;2024-01-25T09:16:33;45132.88;;;-143.47;83.61
35121;BME280;21297;52.008;4.576;2024-01-25T09:19:18;45164.31;;;-143.47;83.85
35121;BME280;21297;52.008;4.576;2024-01-25T09:22:04;45146.63;;;-143.47;83.36
35121;BME280;21297;52.008;4.576;2024-01-25T09:24:50;45121.09;;;-143.47;82.94
35121;BME280;21297;52.008;4.576;2024-01-25T09:27:35;45066.06;;;-143.47;82.55
35121;BME280;21297;52.008;4.576;2024-01-25T09:30:22;44993.38;;;-143.47;79.21
35121;BME280;21297;52.008;4.576;2024-01-25T09:33:08;44906.97;;;-143.47;75.91
35121;BME280;21297;52.008;4.576;2024-01-25T09:35:54;44936.41;;;-143.47;75.89
35121;BME280;21297;52.008;4.576;2024-01-25T09:38:39;44916.78;;;-143.47;76.25
35121;BME280;21297;52.008;4.576;2024-01-25T09:41:25;44936.41;;;-143.47;76.19
35121;BME280;21297;52.008;4.576;2024-01-25T09:44:12;44926.59;;;-143.47;76.36
35121;BME280;21297;52.008;4.576;2024-01-25T09:46:58;44983.56;;;-143.47;77.48
35121;BME280;21297;52.008;4.576;2024-01-25T09:49:44;44989.47;;;-143.47;78.96
35121;BME280;21297;52.008;4.576;2024-01-25T09:52:31;44997.31;;;-143.47;78.51
35121;BME280;21297;52.008;4.576;2024-01-25T09:55:18;45028.75;;;-143.47;79.86
35121;BME280;21297;52.008;4.576;2024-01-25T09:58:07;44987.50;;;-143.47;78.94
35121;BME280;21297;52.008;4.576;2024-01-25T10:00:53;45011.06;;;-143.47;79.53
35121;BME280;21297;52.008;4.576;2024-01-25T10:03:42;45009.09;;;-143.47;79.39
35121;BME280;21297;52.008;4.576;2024-01-25T10:06:28;44987.50;;;-143.47;78.96
35121;BME280;21297;52.008;4.576;2024-01-25T10:09:13;45011.06;;;-143.47;79.19
35121;BME280;21297;52.008;4.576;2024-01-25T10:11:59;44965.88;;;-143.47;77.60
35121;BME280;21297;52.008;4.576;2024-01-25T10:14:45;44979.63;;;-143.47;78.45
35121;BME280;21297;52.008;4.576;2024-01-25T10:17:31;44995.34;;;-143.47;78.60
35121;BME280;21297;52.008;4.576;2024-01-25T10:20:17;44971.78;;;-143.47;78.71
35121;BME280;21297;52.008;4.576;2024-01-25T10:23:03;44989.47;;;-143.47;79.09
35121;BME280;21297;52.008;4.576;2024-01-25T10:25:49;44973.75;;;-143.47;78.25
35121;BME280;21297;52.008;4.576;2024-01-25T10:28:34;44989.47;;;-143.47;78.49
35121;BME280;21297;52.008;4.576;2024-01-25T10:31:24;44910.88;;;-143.47;75.78
35121;BME280;21297;52.008;4.576;2024-01-25T10:34:13;44922.66;;;-143.47;75.37
35121;BME280;21297;52.008;4.576;2024-01-25T10:36:58;44869.63;;;-143.47;75.24
35121;BME280;21297;52.008;4.576;2024-01-25T10:39:44;44932.50;;;-143.47;75.63
35121;BME280;21297;52.008;4.576;2024-01-25T10:42:30;44936.41;;;-143.47;75.72
35121;BME280;21297;52.008;4.576;2024-01-25T10:45:16;44932.50;;;-143.47;76.48
35121;BME280;21297;52.008;4.576;2024-01-25T10:48:02;44946.25;;;-143.47;77.77
35121;BME280;21297;52.008;4.576;2024-01-25T10:50:48;44997.31;;;-143.47;79.54
35121;BME280;21297;52.008;4.576;2024-01-25T10:53:34;44999.28;;;-143.47;79.68
35121;BME280;21297;52.008;4.576;2024-01-25T10:56:20;44999.28;;;-143.47;79.93
35121;BME280;21297;52.008;4.576;2024-01-25T10:59:06;45030.72;;;-143.47;80.78
35121;BME280;21297;52.008;4.576;2024-01-25T11:01:54;45046.44;;;-143.47;80.59
35121;BME280;21297;52.008;4.576;2024-01-25T11:04:40;45018.94;;;-143.47;79.89
35121;BME280;21297;52.008;4.576;2024-01-25T11:07:26;44965.88;;;-143.47;79.16
35121;BME280;21297;52.008;4.576;2024-01-25T11:10:14;44999.28;;;-143.47;79.03
35121;BME280;21297;52.008;4.576;2024-01-25T11:13:01;44991.44;;;-143.47;79.80
35121;BME280;21297;52.008;4.576;2024-01-25T11:15:46;45013.03;;;-143.47;79.56
35121;BME280;21297;52.008;4.576;2024-01-25T11:18:32;44995.34;;;-143.47;79.61
35121;BME280;21297;52.008;4.576;2024-01-25T11:24:25;45022.84;;;-143.47;79.79
35121;BME280;21297;52.008;4.576;2024-01-25T11:27:11;45042.50;;;-143.47;80.51
35121;BME280;21297;52.008;4.576;2024-01-25T11:29:57;45015.00;;;-143.47;79.69
35121;BME280;21297;52.008;4.576;2024-01-25T11:32:43;45028.75;;;-143.47;80.60
35121;BME280;21297;52.008;4.576;2024-01-25T11:35:29;45056.25;;;-143.47;81.00
35121;BME280;21297;52.008;4.576;2024-01-25T11:38:15;45038.56;;;-143.47;80.69
35121;BME280;21297;52.008;4.576;2024-01-25T11:41:00;45026.78;;;-143.47;80.32
35121;BME280;21297;52.008;4.576;2024-01-25T11:43:50;45020.91;;;-143.47;80.44
35121;BME280;21297;52.008;4.576;2024-01-25T11:46:36;44977.69;;;-143.47;79.35
35121;BME280;21297;52.008;4.576;2024-01-25T11:49:24;44985.53;;;-143.47;78.92
35121;BME280;21297;52.008;4.576;2024-01-25T11:52:10;44973.75;;;-143.47;78.70
35121;BME280;21297;52.008;4.576;2024-01-25T11:54:56;44989.47;;;-143.47;79.00
35121;BME280;21297;52.008;4.576;2024-01-25T11:57:42;44946.25;;;-143.47;77.32
35121;BME280;21297;52.008;4.576;2024-01-25T12:00:27;44901.06;;;-143.47;76.51
35121;BME280;21297;52.008;4.576;2024-01-25T12:03:14;44922.66;;;-143.47;76.78
35121;BME280;21297;52.008;4.576;2024-01-25T12:06:00;44961.97;;;-143.47;76.83
35121;BME280;21297;52.008;4.576;2024-01-25T12:08:46;44960.00;;;-143.47;77.74
35121;BME280;21297;52.008;4.576;2024-01-25T12:11:33;44954.09;;;-143.47;76.99
35121;BME280;21297;52.008;4.576;2024-01-25T12:14:20;44912.84;;;-143.47;76.00
35121;BME280;21297;52.008;4.576;2024-01-25T12:17:06;44918.75;;;-143.47;75.85
35121;BME280;21297;52.008;4.576;2024-01-25T12:19:55;44893.22;;;-143.47;75.01
35121;BME280;21297;52.008;4.576;2024-01-25T12:22:41;44918.75;;;-143.47;75.27
35121;BME280;21297;52.008;4.576;2024-01-25T12:25:26;44883.38;;;-143.47;74.52
35121;BME280;21297;52.008;4.576;2024-01-25T12:28:13;44940.34;;;-143.47;74.94
35121;BME280;21297;52.008;4.576;2024-01-25T12:31:00;44897.13;;;-143.47;74.57
35121;BME280;21297;52.008;4.576;2024-01-25T12:33:45;44887.31;;;-143.47;74.85
35121;BME280;21297;52.008;4.576;2024-01-25T12:36:31;44901.06;;;-143.47;74.96
35121;BME280;21297;52.008;4.576;2024-01-25T12:39:18;44901.06;;;-143.47;75.20
35121;BME280;21297;52.008;4.576;2024-01-25T12:42:04;44932.50;;;-143.47;75.62
35121;BME280;21297;52.008;4.576;2024-01-25T12:44:52;44906.97;;;-143.47;75.54
35121;BME280;21297;52.008;4.576;2024-01-25T12:47:38;44940.34;;;-143.47;75.92
35121;BME280;21297;52.008;4.576;2024-01-25T12:50:23;44895.16;;;-143.47;75.66
35121;BME280;21297;52.008;4.576;2024-01-25T12:53:12;44905.00;;;-143.47;75.70
35121;BME280;21297;52.008;4.576;2024-01-25T12:55:59;44934.47;;;-143.47;75.57
35121;BME280;21297;52.008;4.576;2024-01-25T12:58:45;44944.28;;;-143.47;76.84
35121;BME280;21297;52.008;4.576;2024-01-25T13:01:31;44979.63;;;-143.47;77.60
35121;BME280;21297;52.008;4.576;2024-01-25T13:04:16;44924.63;;;-143.47;76.80
35121;BME280;21297;52.008;4.576;2024-01-25T13:07:02;44956.06;;;-143.47;76.83
35121;BME280;21297;52.008;4.576;2024-01-25T13:09:48;44967.84;;;-143.47;77.45
35121;BME280;21297;52.008;4.576;2024-01-25T13:12:33;44979.63;;;-143.47;77.66
35121;BME280;21297;52.008;4.576;2024-01-25T13:15:19;44991.44;;;-143.47;78.48
35121;BME280;21297;52.008;4.576;2024-01-25T13:18:05;44991.44;;;-143.47;78.79
35121;BME280;21297;52.008;4.576;2024-01-25T13:20:51;44983.56;;;-143.47;79.16
35121;BME280;21297;52.008;4.576;2024-01-25T13:23:37;45020.91;;;-143.47;79.37
35121;BME280;21297;52.008;4.576;2024-01-25T13:26:22;44981.59;;;-143.47;78.37
35121;BME280;21297;52.008;4.576;2024-01-25T13:29:08;44967.84;;;-143.47;78.24
35121;BME280;21297;52.008;4.576;2024-01-25T13:31:58;44948.22;;;-143.47;77.76
35121;BME280;21297;52.008;4.576;2024-01-25T13:34:43;44960.00;;;-143.47;78.13
35121;BME280;21297;52.008;4.576;2024-01-25T13:37:29;44979.63;;;-143.47;78.09
35121;BME280;21297;52.008;4.576;2024-01-25T13:40:15;44950.16;;;-143.47;78.23
35121;BME280;21297;52.008;4.576;2024-01-25T13:43:00;44999.28;;;-143.47;78.46
35121;BME280;21297;52.008;4.576;2024-01-25T13:45:46;44963.94;;;-143.47;78.47
35121;BME280;21297;52.008;4.576;2024-01-25T13:48:32;44952.13;;;-143.47;79.00
35121;BME280;21297;52.008;4.576;2024-01-25T13:51:17;45015.00;;;-143.47;78.45
35121;BME280;21297;52.008;4.576;2024-01-25T13:54:03;44958.03;;;-143.47;78.59
35121;BME280;21297;52.008;4.576;2024-01-25T13:56:48;45009.09;;;-143.47;79.77
35121;BME280;21297;52.008;4.576;2024-01-25T13:59:34;44989.47;;;-143.47;79.23
35121;BME280;21297;52.008;4.576;2024-01-25T14:02:20;44987.50;;;-143.47;78.57
35121;BME280;21297;52.008;4.576;2024-01-25T14:05:05;44983.56;;;-143.47;78.34
35121;BME280;21297;52.008;4.576;2024-01-25T14:07:52;45020.91;;;-143.47;79.91
35121;BME280;21297;52.008;4.576;2024-01-25T14:10:37;45028.75;;;-143.47;80.50
35121;BME280;21297;52.008;4.576;2024-01-25T14:13:23;45095.53;;;-143.47;82.11
35121;BME280;21297;52.008;4.576;2024-01-25T14:16:09;45152.50;;;-143.47;83.34
35121;BME280;21297;52.008;4.576;2024-01-25T14:18:55;45262.53;;;-143.47;85.58